Time;durP1;ratioP1;P1;durP2;ratioP2;P2;SDS_P1;SDS_P2;PMS_P1;PMS_P2;Temp;Humidity;BMP_temperature;BMP_pressure;BME280_temperature;BME280_humidity;BME280_pressure;Samples;Min_cycle;Max_cycle;Signal;HPM_P1;HPM_P2
2023/05/08 00:02:43;;;;;;;0.28;0.20;;;22.30;56.10;;;;;;6167054;28;19941;-57
2023/05/08 00:05:45;;;;;;;0.50;0.40;;;22.60;56.00;;;;;;6167731;28;20046;-57
2023/05/08 00:08:47;;;;;;;0.30;0.30;;;22.60;56.00;;;;;;6167452;28;20039;-56
2023/05/08 00:11:48;;;;;;;0.40;0.30;;;22.50;56.00;;;;;;6167472;28;20043;-57
2023/05/08 00:14:50;;;;;;;0.30;0.30;;;22.60;56.00;;;;;;6166958;28;20035;-57
2023/05/08 00:17:51;;;;;;;;;;;22.60;55.60;;;;;;6166664;28;20066;-58
2023/05/08 00:20:53;;;;;;;0.43;0.22;;;22.30;56.20;;;;;;6167315;28;19957;-58
2023/05/08 00:23:56;;;;;;;0.43;0.20;;;22.50;56.00;;;;;;6167176;28;20073;-56
2023/05/08 00:26:58;;;;;;;0.43;0.40;;;22.60;56.00;;;;;;6167114;28;20599;-57
2023/05/08 00:30:00;;;;;;;0.30;0.30;;;22.50;56.00;;;;;;6167058;28;20046;-58
2023/05/08 00:33:01;;;;;;;0.40;0.30;;;22.60;56.10;;;;;;6165294;28;20670;-57
2023/05/08 00:36:04;;;;;;;;;;;22.70;56.20;;;;;;6166333;28;20050;-57
2023/05/08 00:39:08;;;;;;;0.70;0.43;;;22.40;56.20;;;;;;6165582;28;19930;-57
2023/05/08 00:42:10;;;;;;;0.50;0.30;;;22.10;55.90;;;;;;6166772;28;20039;-58
2023/05/08 00:45:11;;;;;;;0.30;0.30;;;22.60;56.10;;;;;;6167005;28;20116;-59
2023/05/08 00:48:14;;;;;;;0.30;0.30;;;22.60;55.90;;;;;;6166675;28;20450;-59
2023/05/08 00:51:19;;;;;;;0.30;0.20;;;22.40;55.80;;;;;;6166844;28;20675;-59
2023/05/08 00:54:21;;;;;;;0.60;0.32;;;22.50;54.50;;;;;;6167126;28;20678;-59
2023/05/08 00:57:24;;;;;;;0.30;0.30;;;22.50;55.90;;;;;;6166562;28;20057;-59
2023/05/08 01:00:25;;;;;;;0.30;0.30;;;22.60;56.00;;;;;;6166311;28;20499;-59
2023/05/08 01:03:27;;;;;;;0.60;0.40;;;22.40;56.00;;;;;;6164494;28;20047;-59
2023/05/08 01:06:30;;;;;;;0.32;0.30;;;22.50;55.90;;;;;;6166528;28;20047;-57
2023/05/08 01:09:32;;;;;;;0.32;0.20;;;22.40;55.90;;;;;;6165927;28;20046;-57
2023/05/08 01:12:46;;;;;;;0.20;0.20;;;22.10;55.80;;;;;;6164700;28;20035;-58
2023/05/08 01:15:53;;;;;;;0.30;0.30;;;22.30;55.70;;;;;;6166609;28;20556;-57
2023/05/08 01:19:02;;;;;;;0.30;0.22;;;22.40;55.90;;;;;;6169058;28;20035;-57
2023/05/08 01:22:17;;;;;;;0.30;0.30;;;22.30;55.90;;;;;;6194775;23;20061;-51
2023/05/08 01:25:50;;;;;;;0.57;0.30;;;22.40;56.00;;;;;;6171116;28;20117;-54
2023/05/08 01:29:22;;;;;;;0.28;0.20;;;22.30;56.10;;;;;;6171010;28;20045;-53
2023/05/08 01:32:27;;;;;;;0.22;0.20;;;22.30;56.30;;;;;;6169680;28;20046;-54
2023/05/08 01:35:35;;;;;;;0.80;0.50;;;22.20;56.30;;;;;;6169491;28;20385;-54
2023/05/08 01:38:46;;;;;;;0.40;0.40;;;21.90;56.20;;;;;;6169198;28;20179;-53
2023/05/08 01:41:56;;;;;;;0.38;0.20;;;22.10;56.30;;;;;;6169554;28;20328;-50
2023/05/08 01:45:02;;;;;;;0.37;0.30;;;22.40;56.50;;;;;;6168997;28;20429;-53
2023/05/08 01:48:09;;;;;;;0.40;0.30;;;21.90;56.20;;;;;;6169152;28;20286;-53
2023/05/08 01:51:17;;;;;;;0.20;0.20;;;22.30;56.30;;;;;;6169866;28;20129;-53
2023/05/08 01:54:23;;;;;;;0.25;0.22;;;21.90;56.20;;;;;;6168721;28;20113;-52
2023/05/08 01:57:28;;;;;;;0.40;0.30;;;22.50;56.50;;;;;;6169760;28;20038;-52
2023/05/08 02:00:31;;;;;;;0.38;0.28;;;22.30;56.30;;;;;;6170192;28;20794;-53
2023/05/08 02:03:36;;;;;;;0.40;0.40;;;22.20;56.40;;;;;;6169785;28;20062;-52
2023/05/08 02:06:38;;;;;;;0.28;0.28;;;22.30;56.40;;;;;;6168446;28;20201;-52
2023/05/08 02:09:42;;;;;;;0.30;0.30;;;22.40;56.40;;;;;;6168433;28;20039;-52
2023/05/08 02:12:44;;;;;;;0.40;0.30;;;22.40;56.50;;;;;;6167884;28;20054;-54
2023/05/08 02:15:48;;;;;;;0.40;0.30;;;22.30;56.50;;;;;;6167519;28;20043;-53
2023/05/08 02:18:53;;;;;;;0.40;0.32;;;22.20;56.50;;;;;;6152034;28;20525;-52
2023/05/08 02:22:00;;;;;;;0.45;0.30;;;22.20;56.40;;;;;;6169284;28;20046;-53
2023/05/08 02:25:02;;;;;;;0.20;0.20;;;22.00;56.60;;;;;;6169118;28;20050;-53
2023/05/08 02:28:06;;;;;;;0.50;0.30;;;22.30;56.60;;;;;;6169245;28;20560;-54
2023/05/08 02:31:09;;;;;;;0.40;0.30;;;22.40;56.70;;;;;;6169231;28;20109;-51
2023/05/08 02:34:12;;;;;;;0.30;0.30;;;22.30;56.70;;;;;;6167196;28;20252;-53
2023/05/08 02:37:17;;;;;;;0.40;0.30;;;22.40;56.90;;;;;;6167655;28;20496;-49
2023/05/08 02:40:21;;;;;;;0.40;0.20;;;22.30;56.80;;;;;;6169170;28;20097;-53
2023/05/08 02:43:23;;;;;;;0.22;0.20;;;22.30;56.80;;;;;;6165056;28;20065;-52
2023/05/08 02:46:34;;;;;;;0.20;0.20;;;22.30;57.00;;;;;;6167868;28;20045;-53
2023/05/08 02:49:50;;;;;;;0.38;0.35;;;21.90;56.70;;;;;;6168664;28;20101;-52
2023/05/08 02:53:01;;;;;;;0.40;0.40;;;22.30;57.00;;;;;;6168301;28;20049;-54
2023/05/08 02:56:11;;;;;;;0.30;0.30;;;22.30;56.90;;;;;;6168650;28;20409;-54
2023/05/08 02:59:16;;;;;;;0.47;0.30;;;22.30;57.00;;;;;;6169448;28;20873;-53
2023/05/08 03:02:27;;;;;;;0.32;0.30;;;21.90;56.80;;;;;;6168305;28;20435;-54
2023/05/08 03:05:32;;;;;;;0.20;0.20;;;22.30;57.10;;;;;;6168273;28;20062;-53
2023/05/08 03:08:36;;;;;;;0.38;0.20;;;22.10;57.10;;;;;;6168185;28;20042;-54
2023/05/08 03:11:41;;;;;;;0.47;0.30;;;22.20;57.20;;;;;;6167685;28;20046;-54
2023/05/08 03:14:58;;;;;;;0.17;0.17;;;22.30;57.20;;;;;;6167836;28;20098;-54
2023/05/08 03:18:05;;;;;;;0.20;0.20;;;22.30;57.30;;;;;;6168375;28;20043;-52
2023/05/08 03:21:12;;;;;;;0.20;0.20;;;22.20;57.20;;;;;;6167577;28;20468;-53
2023/05/08 03:24:16;;;;;;;0.38;0.22;;;22.10;57.10;;;;;;6168793;28;20118;-52
2023/05/08 03:27:19;;;;;;;0.30;0.30;;;22.30;57.30;;;;;;6167838;28;20445;-52
2023/05/08 03:30:22;;;;;;;0.50;0.30;;;22.30;57.40;;;;;;6168321;28;20038;-54
2023/05/08 03:33:34;;;;;;;;;;;22.30;57.40;;;;;;6169907;28;20616;-53
2023/05/08 03:36:40;;;;;;;0.50;0.50;;;22.30;57.80;;;;;;6167877;28;19922;-53
2023/05/08 03:39:41;;;;;;;0.40;0.35;;;22.40;57.60;;;;;;6165201;28;20098;-53
2023/05/08 03:42:44;;;;;;;0.50;0.40;;;22.30;57.50;;;;;;6165924;28;20332;-53
2023/05/08 03:45:47;;;;;;;0.30;0.30;;;21.80;57.40;;;;;;6166415;28;20442;-53
2023/05/08 03:48:52;;;;;;;0.30;0.30;;;22.10;57.50;;;;;;6167785;28;20498;-52
2023/05/08 03:51:55;;;;;;;0.40;0.38;;;22.20;57.70;;;;;;6166032;28;20526;-54
2023/05/08 03:55:00;;;;;;;0.30;0.30;;;22.20;57.80;;;;;;6166513;28;20137;-53
2023/05/08 03:58:10;;;;;;;0.52;0.40;;;22.20;57.80;;;;;;6165876;28;20054;-53
2023/05/08 04:01:19;;;;;;;0.40;0.20;;;22.10;57.80;;;;;;6165865;28;20035;-53
2023/05/08 04:04:29;;;;;;;0.30;0.30;;;21.90;57.80;;;;;;6165771;28;20054;-53
2023/05/08 04:07:37;;;;;;;0.40;0.30;;;22.20;58.00;;;;;;6164237;28;20043;-54
2023/05/08 04:10:47;;;;;;;0.40;0.30;;;22.10;58.10;;;;;;6165196;28;20122;-53
2023/05/08 04:13:58;;;;;;;1.05;0.30;;;22.20;58.20;;;;;;6166112;28;20069;-52
2023/05/08 04:17:03;;;;;;;0.38;0.20;;;22.30;58.30;;;;;;6166788;28;20117;-55
2023/05/08 04:20:11;;;;;;;0.38;0.38;;;22.20;58.20;;;;;;6164672;28;20077;-53
2023/05/08 04:23:16;;;;;;;0.30;0.25;;;22.30;58.50;;;;;;6165811;28;20046;-52
2023/05/08 04:26:19;;;;;;;0.20;0.20;;;22.20;58.40;;;;;;6164808;28;20031;-54
2023/05/08 04:29:24;;;;;;;0.82;0.38;;;22.10;58.50;;;;;;6166061;28;20199;-54
2023/05/08 04:32:27;;;;;;;0.40;0.40;;;22.30;59.20;;;;;;6165022;28;20046;-53
2023/05/08 04:35:29;;;;;;;0.20;0.20;;;22.20;58.70;;;;;;6163921;28;20031;-52
2023/05/08 04:38:36;;;;;;;0.88;0.40;;;22.20;58.80;;;;;;6166019;28;20043;-54
2023/05/08 04:41:38;;;;;;;0.40;0.40;;;22.10;58.80;;;;;;6165379;28;20042;-53
2023/05/08 04:44:40;;;;;;;0.40;0.40;;;22.10;58.90;;;;;;6165227;28;20039;-54
2023/05/08 04:47:42;;;;;;;0.20;0.20;;;21.90;58.90;;;;;;6165488;28;20117;-54
2023/05/08 04:50:44;;;;;;;0.30;0.30;;;22.20;59.00;;;;;;6166370;28;20061;-54
2023/05/08 04:53:46;;;;;;;0.40;0.30;;;22.10;59.10;;;;;;6170176;28;20513;-53
2023/05/08 04:56:48;;;;;;;0.30;0.30;;;22.10;59.00;;;;;;6169365;28;20105;-54
2023/05/08 04:59:50;;;;;;;0.47;0.30;;;22.20;59.20;;;;;;6170349;28;20697;-54
2023/05/08 05:02:52;;;;;;;0.30;0.30;;;22.30;57.70;;;;;;6169297;28;20081;-51
2023/05/08 05:05:56;;;;;;;;;;;22.10;59.20;;;;;;6166888;28;20098;-52
2023/05/08 05:08:58;;;;;;;0.52;0.52;;;22.30;59.50;;;;;;6170051;28;19928;-54
2023/05/08 05:11:59;;;;;;;0.43;0.43;;;22.20;59.30;;;;;;6169453;28;20054;-53
2023/05/08 05:15:01;;;;;;;0.50;0.38;;;22.20;59.40;;;;;;6170160;28;20562;-53
2023/05/08 05:18:06;;;;;;;0.52;0.30;;;22.10;59.50;;;;;;6169848;28;20481;-54
2023/05/08 05:21:08;;;;;;;0.50;0.45;;;22.10;59.50;;;;;;6169511;28;20117;-54
2023/05/08 05:24:10;;;;;;;0.57;0.30;;;22.00;59.40;;;;;;6169817;28;20574;-54
2023/05/08 05:27:12;;;;;;;0.40;0.35;;;21.80;59.10;;;;;;6169140;28;20063;-55
2023/05/08 05:30:14;;;;;;;0.30;0.28;;;22.10;59.60;;;;;;6167962;28;20035;-53
2023/05/08 05:33:17;;;;;;;0.30;0.30;;;22.30;59.60;;;;;;6167076;28;20041;-54
2023/05/08 05:36:19;;;;;;;0.60;0.40;;;22.10;59.60;;;;;;6167416;28;20043;-53
2023/05/08 05:39:25;;;;;;;0.40;0.40;;;22.10;59.70;;;;;;6149530;28;20077;-52
2023/05/08 05:42:27;;;;;;;0.38;0.30;;;22.10;59.60;;;;;;6170425;28;20405;-46
2023/05/08 05:45:30;;;;;;;0.50;0.40;;;22.20;59.90;;;;;;6168497;28;20406;-48
2023/05/08 05:48:35;;;;;;;0.30;0.30;;;22.20;59.80;;;;;;6167978;28;20039;-47
2023/05/08 05:51:37;;;;;;;0.32;0.30;;;22.20;59.80;;;;;;6167492;28;20540;-46
2023/05/08 05:54:40;;;;;;;0.45;0.32;;;22.20;59.80;;;;;;6167201;28;20714;-47
2023/05/08 05:57:42;;;;;;;0.57;0.40;;;22.10;59.70;;;;;;6167271;28;20122;-47
2023/05/08 06:00:43;;;;;;;;;;;22.10;59.80;;;;;;6167134;28;20042;-48
2023/05/08 06:03:48;;;;;;;0.38;0.38;;;22.10;60.10;;;;;;6162305;28;20365;-47
2023/05/08 06:06:52;;;;;;;0.63;0.50;;;22.10;60.00;;;;;;6163786;28;20035;-47
2023/05/08 06:09:55;;;;;;;0.60;0.50;;;22.10;59.50;;;;;;6163645;28;20525;-47
2023/05/08 06:12:56;;;;;;;0.85;0.47;;;22.20;60.10;;;;;;6165776;28;20049;-48
2023/05/08 06:16:01;;;;;;;0.47;0.40;;;22.00;60.00;;;;;;6164832;28;20449;-46
2023/05/08 06:19:04;;;;;;;0.30;0.30;;;22.10;60.00;;;;;;6164694;28;20043;-47
2023/05/08 06:22:06;;;;;;;;;;;22.10;60.00;;;;;;6165893;28;20162;-46
2023/05/08 06:25:09;;;;;;;0.30;0.30;;;22.50;60.60;;;;;;6165718;28;19930;-47
2023/05/08 06:28:11;;;;;;;0.30;0.30;;;22.20;60.00;;;;;;6164647;28;20121;-48
2023/05/08 06:31:12;;;;;;;;;;;22.00;60.20;;;;;;6164184;28;20047;-47
2023/05/08 06:34:15;;;;;;;0.30;0.30;;;22.10;60.50;;;;;;6164094;28;19922;-50
2023/05/08 06:37:16;;;;;;;;;;;22.20;60.40;;;;;;6164067;28;20042;-46
2023/05/08 06:40:18;;;;;;;0.50;0.30;;;22.10;60.60;;;;;;6163863;28;19929;-47
2023/05/08 06:43:20;;;;;;;0.52;0.38;;;22.40;60.70;;;;;;6163904;28;20124;-46
2023/05/08 06:46:22;;;;;;;0.30;0.20;;;22.10;60.70;;;;;;6163848;28;20093;-44
2023/05/08 06:49:26;;;;;;;;;;;22.20;60.90;;;;;;6162822;28;20046;-48
2023/05/08 06:52:28;;;;;;;0.32;0.30;;;21.90;61.00;;;;;;6164281;28;19925;-47
2023/05/08 06:55:30;;;;;;;0.25;0.25;;;22.20;60.90;;;;;;6164944;28;20046;-48
2023/05/08 06:58:32;;;;;;;0.38;0.30;;;21.80;60.80;;;;;;6166170;28;20035;-46
2023/05/08 07:01:33;;;;;;;0.32;0.30;;;21.90;61.00;;;;;;6166168;28;20038;-45
2023/05/08 07:04:39;;;;;;;0.40;0.40;;;22.20;61.10;;;;;;6163009;28;20031;-47
2023/05/08 07:07:41;;;;;;;0.50;0.30;;;22.20;59.30;;;;;;6166171;28;20038;-47
2023/05/08 07:10:48;;;;;;;0.77;0.30;;;22.10;60.90;;;;;;6165022;28;20220;-48
2023/05/08 07:13:50;;;;;;;0.32;0.20;;;21.80;61.20;;;;;;6164582;28;20039;-46
2023/05/08 07:16:51;;;;;;;;;;;22.10;61.40;;;;;;6165467;28;20379;-49
2023/05/08 07:19:52;;;;;;;0.57;0.30;;;22.20;61.70;;;;;;6164731;28;19922;-50
2023/05/08 07:22:54;;;;;;;0.40;0.30;;;22.30;61.50;;;;;;6164839;28;20395;-49
2023/05/08 07:25:56;;;;;;;0.43;0.20;;;22.00;61.50;;;;;;6165337;28;20039;-48
2023/05/08 07:28:58;;;;;;;0.40;0.40;;;22.20;61.60;;;;;;6164699;28;20498;-49
2023/05/08 07:32:00;;;;;;;0.40;0.30;;;21.90;61.80;;;;;;6164484;28;20043;-49
2023/05/08 07:35:02;;;;;;;0.70;0.40;;;22.00;61.70;;;;;;6163988;28;20469;-49
2023/05/08 07:38:04;;;;;;;0.30;0.30;;;21.90;61.90;;;;;;6163212;28;20125;-46
2023/05/08 07:41:05;;;;;;;;;;;22.20;62.20;;;;;;6165212;28;20358;-47
2023/05/08 07:44:07;;;;;;;0.40;0.30;;;21.90;62.20;;;;;;6164170;28;20282;-49
2023/05/08 07:47:08;;;;;;;0.40;0.40;;;22.20;62.20;;;;;;6165288;28;20038;-51
2023/05/08 07:50:10;;;;;;;0.47;0.40;;;22.40;62.50;;;;;;6165249;28;20406;-53
2023/05/08 07:53:12;;;;;;;0.30;0.30;;;22.20;62.50;;;;;;6162632;28;20105;-55
2023/05/08 07:56:14;;;;;;;0.40;0.40;;;22.20;62.70;;;;;;6163808;28;20047;-55
2023/05/08 07:59:16;;;;;;;0.38;0.35;;;22.20;62.60;;;;;;6163772;28;20039;-54
2023/05/08 08:02:17;;;;;;;0.40;0.40;;;22.10;62.70;;;;;;6163750;28;20332;-54
2023/05/08 08:05:19;;;;;;;;;;;22.20;63.00;;;;;;6164005;28;20047;-54
2023/05/08 08:08:20;;;;;;;0.38;0.38;;;22.40;63.30;;;;;;6163462;28;19929;-55
2023/05/08 08:11:22;;;;;;;0.40;0.32;;;21.90;62.70;;;;;;6164065;28;20031;-55
2023/05/08 08:14:24;;;;;;;0.40;0.40;;;21.80;62.80;;;;;;6164064;28;20035;-54
2023/05/08 08:17:26;;;;;;;;;;;22.20;63.00;;;;;;6164246;28;20035;-54
2023/05/08 08:20:30;;;;;;;0.32;0.20;;;21.90;63.30;;;;;;6161917;28;19953;-53
2023/05/08 08:23:32;;;;;;;;;;;22.10;62.80;;;;;;6164585;28;20344;-53
2023/05/08 08:26:37;;;;;;;0.52;0.20;;;23.60;64.00;;;;;;6170077;28;20004;-55
2023/05/08 08:29:38;;;;;;;0.47;0.47;;;22.30;63.00;;;;;;6172360;28;20594;-55
2023/05/08 08:32:40;;;;;;;;;;;22.30;63.40;;;;;;6172164;28;20042;-53
2023/05/08 08:35:44;;;;;;;0.52;0.40;;;22.30;63.50;;;;;;6172388;28;20064;-55
2023/05/08 08:38:45;;;;;;;0.40;0.32;;;23.00;63.50;;;;;;6135856;28;20653;-54
2023/05/08 08:41:48;;;;;;;0.38;0.30;;;22.20;62.90;;;;;;6171014;28;20042;-55
2023/05/08 08:44:50;;;;;;;0.28;0.28;;;22.20;63.00;;;;;;6172221;28;20049;-54
2023/05/08 08:47:52;;;;;;;0.40;0.40;;;22.30;63.00;;;;;;6172287;28;20031;-54
2023/05/08 08:51:01;;;;;;;0.32;0.25;;;22.40;62.90;;;;;;6172193;28;20543;-53
2023/05/08 08:54:09;;;;;;;0.30;0.30;;;22.10;62.70;;;;;;6172337;28;20041;-55
2023/05/08 08:57:12;;;;;;;0.50;0.30;;;22.10;62.50;;;;;;6171161;28;20098;-55
2023/05/08 09:00:14;;;;;;;0.20;0.20;;;22.40;62.60;;;;;;6171623;28;20047;-55
2023/05/08 09:03:16;;;;;;;0.20;0.20;;;22.30;62.40;;;;;;6171818;28;20047;-55
2023/05/08 09:06:18;;;;;;;0.30;0.30;;;22.30;62.40;;;;;;6171040;28;20043;-55
2023/05/08 09:09:21;;;;;;;0.30;0.30;;;22.00;62.10;;;;;;6171434;28;20042;-54
2023/05/08 09:12:26;;;;;;;0.28;0.28;;;22.40;62.30;;;;;;6171006;28;20031;-53
2023/05/08 09:15:31;;;;;;;0.28;0.25;;;22.40;62.00;;;;;;6171225;28;20042;-54
2023/05/08 09:18:32;;;;;;;0.30;0.25;;;22.30;61.60;;;;;;6171465;28;20035;-56
2023/05/08 09:21:34;;;;;;;;;;;22.10;61.50;;;;;;6171357;28;20042;-54
2023/05/08 09:24:56;;;;;;;0.40;0.20;;;22.00;61.60;;;;;;6171490;28;19965;-55
2023/05/08 09:28:15;;;;;;;0.15;0.15;;;22.30;61.20;;;;;;6171054;28;20043;-55
2023/05/08 09:31:16;;;;;;;0.20;0.20;;;22.00;60.90;;;;;;6168913;28;20039;-55
2023/05/08 09:34:22;;;;;;;;;;;22.20;60.90;;;;;;6170117;28;20608;-56
2023/05/08 09:37:25;;;;;;;0.20;0.20;;;22.50;61.20;;;;;;6167689;28;19921;-56
2023/05/08 09:40:26;;;;;;;0.20;0.20;;;22.40;60.50;;;;;;6166916;28;20581;-53
2023/05/08 09:43:28;;;;;;;0.20;0.20;;;22.50;60.40;;;;;;6164805;28;20043;-54
2023/05/08 09:46:32;;;;;;;0.10;0.10;;;22.30;60.00;;;;;;6164309;28;20123;-55
2023/05/08 09:49:34;;;;;;;0.20;0.20;;;22.50;59.90;;;;;;6165345;28;20103;-54
2023/05/08 09:52:37;;;;;;;;;;;22.50;59.90;;;;;;6165957;28;20038;-55
2023/05/08 09:55:47;;;;;;;0.28;0.20;;;22.20;59.90;;;;;;6166602;28;19922;-55
2023/05/08 09:58:49;;;;;;;0.10;0.10;;;22.50;59.90;;;;;;6149009;28;20043;-54
2023/05/08 10:01:50;;;;;;;0.30;0.20;;;22.50;59.90;;;;;;6164600;28;20038;-54
2023/05/08 10:04:52;;;;;;;0.28;0.22;;;22.40;60.00;;;;;;6164575;28;20039;-55
2023/05/08 10:07:54;;;;;;;0.20;0.20;;;22.50;60.10;;;;;;6165332;28;20051;-55
2023/05/08 10:11:13;;;;;;;0.22;0.20;;;22.40;60.10;;;;;;6166047;28;20046;-53
2023/05/08 10:14:15;;;;;;;0.30;0.20;;;22.40;60.00;;;;;;6165321;28;20054;-54
2023/05/08 10:17:23;;;;;;;0.55;0.40;;;22.60;60.10;;;;;;6165673;28;20287;-54
2023/05/08 10:20:28;;;;;;;0.30;0.30;;;22.20;59.70;;;;;;6164868;28;20031;-55
2023/05/08 10:23:33;;;;;;;0.10;0.10;;;22.20;59.70;;;;;;6164840;28;20050;-56
2023/05/08 10:26:41;;;;;;;0.20;0.20;;;22.60;59.90;;;;;;6165742;28;20074;-54
2023/05/08 10:29:59;;;;;;;0.35;0.20;;;22.70;59.60;;;;;;6165213;28;20264;-54
2023/05/08 10:33:04;;;;;;;0.30;0.30;;;22.50;59.10;;;;;;6165151;28;20146;-55
2023/05/08 10:36:08;;;;;;;0.30;0.20;;;22.10;58.60;;;;;;6166055;28;20410;-55
2023/05/08 10:39:12;;;;;;;0.40;0.30;;;22.30;58.60;;;;;;6165680;28;20031;-55
2023/05/08 10:42:14;;;;;;;0.17;0.17;;;22.60;58.50;;;;;;6166066;28;20047;-55
2023/05/08 10:45:16;;;;;;;0.50;0.20;;;22.60;58.50;;;;;;6165860;28;20038;-54
2023/05/08 10:48:26;;;;;;;0.20;0.20;;;22.60;58.40;;;;;;6164790;28;20054;-55
2023/05/08 10:51:40;;;;;;;0.25;0.20;;;22.30;58.30;;;;;;6165615;28;20391;-53
2023/05/08 10:55:03;;;;;;;0.20;0.20;;;22.70;58.70;;;;;;6165554;28;20043;-53
2023/05/08 10:58:14;;;;;;;0.30;0.30;;;22.80;58.60;;;;;;6164065;28;20051;-55
2023/05/08 11:01:17;;;;;;;0.20;0.20;;;22.60;58.50;;;;;;6164838;28;20336;-52
2023/05/08 11:04:20;;;;;;;0.57;0.20;;;22.60;58.50;;;;;;6165792;28;20466;-54
2023/05/08 11:07:49;;;;;;;0.63;0.20;;;23.70;59.00;;;;;;6148978;28;20474;-55
2023/05/08 11:11:05;;;;;;;0.22;0.22;;;22.60;58.30;;;;;;6151316;28;20517;-54
2023/05/08 11:14:12;;;;;;;0.30;0.30;;;22.60;58.00;;;;;;6164722;28;20038;-55
2023/05/08 11:17:22;;;;;;;0.22;0.20;;;22.70;57.80;;;;;;6165478;28;20435;-54
2023/05/08 11:20:38;;;;;;;0.10;0.10;;;22.70;57.70;;;;;;6165021;28;20130;-55
2023/05/08 11:23:39;;;;;;;0.30;0.20;;;22.70;57.70;;;;;;6164813;28;20391;-55
2023/05/08 11:26:41;;;;;;;0.30;0.13;;;22.40;57.50;;;;;;6164650;28;20050;-54
2023/05/08 11:29:43;;;;;;;;;;;22.60;57.50;;;;;;6165061;28;20093;-54
2023/05/08 11:33:11;;;;;;;0.20;0.20;;;22.50;57.60;;;;;;6163789;28;20021;-54
2023/05/08 11:36:14;;;;;;;0.30;0.30;;;22.70;57.60;;;;;;6164529;28;20119;-54
2023/05/08 11:39:17;;;;;;;0.20;0.20;;;22.50;57.50;;;;;;6163376;28;20433;-55
2023/05/08 11:42:34;;;;;;;0.40;0.30;;;22.20;57.50;;;;;;6163063;28;20070;-55
2023/05/08 11:45:40;;;;;;;0.20;0.20;;;22.80;57.90;;;;;;6163456;28;20039;-53
2023/05/08 11:48:43;;;;;;;0.20;0.20;;;22.80;57.90;;;;;;6164651;28;20531;-54
2023/05/08 11:51:45;;;;;;;0.30;0.20;;;22.80;58.10;;;;;;6164644;28;20055;-53
2023/05/08 11:54:47;;;;;;;0.10;0.10;;;22.80;58.10;;;;;;6163147;28;20043;-55
2023/05/08 11:57:54;;;;;;;0.20;0.10;;;22.60;58.00;;;;;;6164519;28;20043;-53
2023/05/08 12:00:56;;;;;;;0.13;0.13;;;22.70;58.00;;;;;;6163826;28;20042;-54
2023/05/08 12:04:05;;;;;;;0.28;0.28;;;22.70;58.30;;;;;;6164492;28;20706;-55
2023/05/08 12:07:07;;;;;;;0.20;0.20;;;22.80;58.30;;;;;;6163430;28;20042;-55
2023/05/08 12:10:09;;;;;;;0.40;0.40;;;22.80;58.60;;;;;;6164309;28;20039;-55
2023/05/08 12:13:17;;;;;;;0.13;0.13;;;22.80;58.70;;;;;;6162898;28;20051;-54
2023/05/08 12:16:20;;;;;;;0.15;0.15;;;22.60;57.80;;;;;;6162740;28;20069;-52
2023/05/08 12:19:25;;;;;;;0.60;0.30;;;22.70;59.10;;;;;;6164016;28;20038;-54
2023/05/08 12:22:30;;;;;;;0.25;0.25;;;22.70;59.60;;;;;;6163170;28;20308;-54
2023/05/08 12:25:31;;;;;;;0.17;0.17;;;22.90;59.70;;;;;;6161515;28;20035;-54
2023/05/08 12:28:38;;;;;;;0.20;0.20;;;22.80;59.80;;;;;;6162451;28;20049;-54
2023/05/08 12:31:40;;;;;;;0.30;0.25;;;22.50;59.50;;;;;;6163832;28;20039;-55
2023/05/08 12:34:42;;;;;;;0.20;0.20;;;22.90;60.00;;;;;;6163278;28;20391;-54
2023/05/08 12:37:44;;;;;;;0.38;0.35;;;22.50;59.80;;;;;;6163930;28;20066;-55
2023/05/08 12:40:47;;;;;;;0.40;0.30;;;22.80;60.10;;;;;;6163606;28;20043;-54
2023/05/08 12:43:49;;;;;;;0.20;0.20;;;23.00;60.10;;;;;;6161663;28;20653;-55
2023/05/08 12:46:51;;;;;;;0.32;0.30;;;22.90;60.30;;;;;;6163248;28;20035;-54
2023/05/08 12:49:57;;;;;;;0.28;0.28;;;22.90;60.30;;;;;;6163023;28;20039;-54
2023/05/08 12:53:02;;;;;;;0.30;0.30;;;22.80;60.30;;;;;;6162069;28;20067;-54
2023/05/08 12:56:05;;;;;;;0.38;0.25;;;22.90;60.20;;;;;;6162000;28;20164;-55
2023/05/08 12:59:06;;;;;;;0.52;0.40;;;22.90;60.20;;;;;;6163267;28;20062;-55
2023/05/08 13:02:11;;;;;;;;;;;22.90;60.00;;;;;;6163650;28;20050;-55
2023/05/08 13:05:20;;;;;;;0.65;0.40;;;23.00;60.30;;;;;;6161108;28;19922;-55
2023/05/08 13:08:29;;;;;;;0.30;0.30;;;22.90;59.80;;;;;;6163355;28;20031;-55
2023/05/08 13:11:32;;;;;;;0.20;0.20;;;22.70;59.60;;;;;;6163808;28;20058;-53
2023/05/08 13:14:33;;;;;;;0.20;0.20;;;23.10;59.60;;;;;;6167346;28;20150;-52
2023/05/08 13:17:35;;;;;;;0.38;0.20;;;23.10;59.70;;;;;;6167261;28;20035;-54
2023/05/08 13:20:38;;;;;;;0.40;0.30;;;23.00;59.30;;;;;;6167371;28;20096;-54
2023/05/08 13:23:42;;;;;;;0.55;0.20;;;22.60;59.10;;;;;;6166370;28;20291;-55
2023/05/08 13:26:44;;;;;;;0.40;0.30;;;23.40;59.60;;;;;;6167717;28;20042;-54
2023/05/08 13:29:46;;;;;;;0.30;0.20;;;22.90;59.50;;;;;;6167518;28;20075;-56
2023/05/08 13:32:47;;;;;;;0.15;0.13;;;22.90;59.30;;;;;;6166935;28;20055;-55
2023/05/08 13:35:50;;;;;;;0.40;0.20;;;23.10;60.10;;;;;;6164998;28;20546;-55
2023/05/08 13:38:53;;;;;;;0.35;0.30;;;23.10;59.20;;;;;;6164643;28;20047;-55
2023/05/08 13:41:55;;;;;;;0.30;0.30;;;23.20;59.50;;;;;;6165503;28;20478;-54
2023/05/08 13:44:56;;;;;;;0.22;0.20;;;23.10;59.50;;;;;;6165774;28;20062;-55
2023/05/08 13:47:58;;;;;;;0.20;0.20;;;23.10;59.60;;;;;;6166649;28;20687;-54
2023/05/08 13:51:00;;;;;;;0.38;0.20;;;23.10;59.40;;;;;;6167208;28;20035;-53
2023/05/08 13:54:01;;;;;;;0.50;0.30;;;23.00;59.30;;;;;;6166241;28;20074;-54
2023/05/08 13:57:02;;;;;;;;;;;23.10;59.30;;;;;;6166080;28;20042;-53
2023/05/08 14:00:06;;;;;;;0.80;0.30;;;23.10;59.70;;;;;;6166650;28;19960;-54
2023/05/08 14:03:08;;;;;;;0.70;0.32;;;22.90;59.30;;;;;;6166819;28;20062;-54
2023/05/08 14:06:12;;;;;;;0.43;0.30;;;22.60;59.30;;;;;;6166302;28;20035;-55
2023/05/08 14:09:14;;;;;;;0.20;0.20;;;23.20;59.20;;;;;;6166514;28;20066;-55
2023/05/08 14:12:15;;;;;;;1.25;0.20;;;23.10;59.60;;;;;;6166160;28;20406;-54
2023/05/08 14:15:17;;;;;;;0.30;0.20;;;23.30;59.60;;;;;;6165598;28;20043;-54
2023/05/08 14:18:20;;;;;;;0.20;0.20;;;23.20;59.50;;;;;;6166036;28;20042;-55
2023/05/08 14:21:22;;;;;;;0.60;0.20;;;22.70;59.10;;;;;;6166897;28;20035;-55
2023/05/08 14:24:24;;;;;;;0.30;0.20;;;23.20;59.30;;;;;;6166125;28;20063;-55
2023/05/08 14:27:25;;;;;;;0.65;0.20;;;23.20;59.20;;;;;;6165888;28;20104;-52
2023/05/08 14:30:29;;;;;;;0.25;0.25;;;23.20;59.30;;;;;;6165381;28;20074;-55
2023/05/08 14:33:31;;;;;;;0.25;0.20;;;23.10;59.20;;;;;;6165623;28;20045;-55
2023/05/08 14:36:34;;;;;;;0.50;0.20;;;23.10;59.10;;;;;;6165863;28;20046;-54
2023/05/08 14:39:35;;;;;;;0.28;0.20;;;22.80;58.80;;;;;;6164892;28;20039;-55
2023/05/08 14:42:37;;;;;;;0.30;0.30;;;23.20;59.20;;;;;;6165182;28;20038;-54
2023/05/08 14:45:38;;;;;;;0.30;0.20;;;23.20;59.20;;;;;;6162213;28;20057;-55
2023/05/08 14:48:40;;;;;;;;;;;23.40;59.40;;;;;;6166282;28;20501;-55
2023/05/08 14:51:42;;;;;;;0.30;0.17;;;22.90;59.30;;;;;;6165765;28;19926;-55
2023/05/08 14:54:43;;;;;;;0.20;0.17;;;23.00;59.20;;;;;;6165368;28;20067;-52
2023/05/08 14:57:45;;;;;;;0.20;0.20;;;23.30;59.30;;;;;;6165053;28;20050;-54
2023/05/08 15:00:47;;;;;;;0.75;0.30;;;23.20;59.30;;;;;;6165129;28;20050;-54
2023/05/08 15:03:51;;;;;;;0.30;0.22;;;22.60;58.90;;;;;;6165267;28;20611;-55
2023/05/08 15:06:54;;;;;;;0.30;0.20;;;23.30;59.50;;;;;;6165069;28;20039;-55
2023/05/08 15:09:55;;;;;;;0.40;0.28;;;23.30;59.40;;;;;;6165582;28;20035;-52
2023/05/08 15:12:57;;;;;;;;;;;23.20;59.60;;;;;;6164917;28;20098;-54
2023/05/08 15:15:58;;;;;;;;;;;23.00;59.40;;;;;;6163046;28;20008;-53
2023/05/08 15:19:00;;;;;;;0.20;0.20;;;23.30;59.90;;;;;;6165243;28;19922;-55
2023/05/08 15:22:02;;;;;;;0.20;0.20;;;23.20;60.20;;;;;;6164821;28;20512;-54
2023/05/08 15:25:05;;;;;;;0.17;0.15;;;23.20;59.50;;;;;;6164940;28;20486;-55
2023/05/08 15:28:06;;;;;;;0.43;0.20;;;22.80;59.20;;;;;;6165133;28;20093;-55
2023/05/08 15:31:08;;;;;;;0.32;0.30;;;23.20;59.50;;;;;;6129826;28;20580;-54
2023/05/08 15:34:10;;;;;;;0.35;0.30;;;23.20;59.20;;;;;;6163457;28;20047;-54
2023/05/08 15:37:12;;;;;;;0.82;0.52;;;23.10;59.20;;;;;;6165616;28;20035;-54
2023/05/08 15:40:14;;;;;;;0.20;0.20;;;23.20;59.10;;;;;;6166790;28;20039;-55
2023/05/08 15:43:16;;;;;;;0.38;0.20;;;23.10;59.30;;;;;;6165618;28;20097;-53
2023/05/08 15:46:17;;;;;;;;;;;23.10;59.20;;;;;;6165459;28;20042;-53
2023/05/08 15:49:24;;;;;;;0.40;0.20;;;23.60;59.80;;;;;;6164514;28;19928;-51
2023/05/08 15:52:26;;;;;;;0.45;0.20;;;23.20;59.10;;;;;;6164199;28;20429;-55
2023/05/08 15:55:28;;;;;;;0.40;0.30;;;23.10;59.10;;;;;;6164096;28;20046;-53
2023/05/08 15:58:30;;;;;;;;;;;23.20;59.10;;;;;;6164093;28;20490;-54
2023/05/08 16:01:31;;;;;;;;;;;23.70;59.70;;;;;;6164498;28;19926;-50
2023/05/08 16:04:33;;;;;;;0.15;0.15;;;22.90;59.40;;;;;;6164153;28;20424;-54
2023/05/08 16:07:35;;;;;;;0.20;0.20;;;23.10;59.30;;;;;;6163834;28;20038;-52